Flight Track Log - Related Links

Times and Time Zones

All times are in EST time to prevent confusion due to time zone crossing. See the CSN6819 flight status page for this flight to view local times or setup timezone preferences in your user account.

Time Position Orientation Groundspeed Altitude Reporting Facility
EST Latitude Longitude Course Direction KTS MPH feet Rate Location/Type
Mon 08:13:00 AM 43.8127 87.3538 223° Southwest  Level Estimated
Mon 08:14:00 AM 43.7182 87.2337 223° Southwest  Level Estimated
Mon 08:15:00 AM 43.6236 87.1141 222° Southwest  Level Estimated
Mon 08:16:00 AM 43.5288 86.9948 222° Southwest  Level Estimated
Mon 08:17:00 AM 43.4339 86.8758 222° Southwest  Level Estimated
Mon 08:18:00 AM 43.3389 86.7573 222° Southwest  Level Estimated
Mon 08:19:00 AM 43.2438 86.6391 222° Southwest  Level Estimated
Mon 08:20:00 AM 43.1485 86.5213 222° Southwest  Level Estimated
Mon 08:21:00 AM 43.0532 86.4038 222° Southwest  Level Estimated
Mon 08:22:00 AM 42.9577 86.2867 222° Southwest  Level Estimated
Mon 08:23:00 AM 42.8620 86.1700 222° Southwest  Level Estimated
Mon 08:24:00 AM 42.7663 86.0536 222° Southwest  Level Estimated
Mon 08:25:00 AM 42.6705 85.9376 222° Southwest  Level Estimated
Mon 08:26:00 AM 42.5745 85.8220 222° Southwest  Level Estimated
Mon 08:27:00 AM 42.4784 85.7067 222° Southwest  Level Estimated
Mon 08:28:00 AM 42.3822 85.5918 221° Southwest  Level Estimated
Mon 08:29:00 AM 42.2859 85.4772 221° Southwest  Level Estimated
Mon 08:30:00 AM 42.1895 85.3630 221° Southwest  Level Estimated
Mon 08:31:00 AM 42.0929 85.2491 221° Southwest  Level Estimated
Mon 08:32:00 AM 41.9963 85.1355 221° Southwest  Level Estimated
Mon 08:33:00 AM 41.8995 85.0223 221° Southwest  Level Estimated
Mon 08:34:00 AM 41.8027 84.9095 221° Southwest  Level Estimated
Mon 08:35:00 AM 41.7057 84.7970 221° Southwest  Level Estimated
Mon 08:36:00 AM 41.6086 84.6848 221° Southwest  Level Estimated
Mon 08:37:00 AM 41.5114 84.5730 221° Southwest  Level Estimated
Mon 08:38:00 AM 41.4141 84.4615 221° Southwest  Level Estimated
Mon 08:39:00 AM 41.3167 84.3503 221° Southwest  Level Estimated
Mon 08:40:00 AM 41.2191 84.2395 221° Southwest  Level Estimated
Mon 08:41:00 AM 41.1215 84.1290 220° Southwest  Level Estimated
Mon 08:42:00 AM 41.0238 84.0188 220° Southwest  Level Estimated
Mon 08:43:00 AM 40.9259 83.9089 220° Southwest  Level Estimated
Mon 08:44:00 AM 40.8280 83.7994 220° Southwest  Level Estimated
Mon 08:45:00 AM 40.7299 83.6902 220° Southwest  Level Estimated
Mon 08:46:00 AM 40.6318 83.5813 220° Southwest  Level Estimated
Mon 08:47:00 AM 40.5336 83.4728 220° Southwest  Level Estimated
Mon 08:48:00 AM 40.4352 83.3645 220° Southwest  Level Estimated
Mon 08:49:00 AM 40.3368 83.2566 220° Southwest  Level Estimated
Mon 08:50:00 AM 40.2382 83.1490 220° Southwest  Level Estimated
Mon 08:51:00 AM 40.1395 83.0417 220° Southwest  Level Estimated
Mon 08:52:00 AM 40.0408 82.9347 220° Southwest  Level Estimated
Mon 08:53:00 AM 39.9420 82.8280 220° Southwest  Level Estimated
Mon 08:54:00 AM 39.8430 82.7217 220° Southwest  Level Estimated
Mon 08:55:00 AM 39.7440 82.6156 219° Southwest  Level Estimated
Mon 08:56:00 AM 39.6448 82.5098 219° Southwest  Level Estimated
Mon 08:57:00 AM 39.5456 82.4044 219° Southwest  Level Estimated
Mon 08:58:00 AM 39.4463 82.2992 219° Southwest  Level Estimated
Mon 08:59:00 AM 39.3468 82.1944 219° Southwest  Level Estimated
Mon 09:00:00 AM 39.2473 82.0899 219° Southwest  Level Estimated
Mon 09:01:00 AM 39.1477 81.9856 219° Southwest  Level Estimated
Mon 09:02:00 AM 39.0480 81.8816 219° Southwest  Level Estimated
Mon 09:03:00 AM 38.9482 81.7780 219° Southwest  Level Estimated
Mon 09:04:00 AM 38.8483 81.6746 219° Southwest  Level Estimated
Mon 09:05:00 AM 38.7483 81.5715 219° Southwest  Level Estimated
Mon 09:06:00 AM 38.6483 81.4687 219° Southwest  Level Estimated
Mon 09:07:00 AM 38.5481 81.3662 219° Southwest  Level Estimated
Mon 09:08:00 AM 38.4478 81.2639 219° Southwest  Level Estimated
Mon 09:09:00 AM 38.3475 81.1620 219° Southwest  Level Estimated
Mon 09:10:00 AM 38.2471 81.0603 218° Southwest  Level Estimated
Mon 09:11:00 AM 38.1466 80.9590 218° Southwest  Level Estimated
Mon 09:12:00 AM 38.0460 80.8579 218° Southwest  Level Estimated
Mon 09:13:00 AM 37.9453 80.7570 218° Southwest  Level Estimated
Mon 09:14:00 AM 37.8445 80.6565 218° Southwest  Level Estimated
Mon 09:15:00 AM 37.7437 80.5562 218° Southwest  Level Estimated
Mon 09:16:00 AM 37.6427 80.4562 218° Southwest  Level Estimated
Mon 09:17:00 AM 37.5417 80.3565 218° Southwest  Level Estimated
Mon 09:18:00 AM 37.4406 80.2570 218° Southwest  Level Estimated
Mon 09:19:00 AM 37.3394 80.1578 218° Southwest  Level Estimated
Mon 09:20:00 AM 37.2381 80.0589 218° Southwest  Level Estimated
Mon 09:21:00 AM 37.1368 79.9603 218° Southwest  Level Estimated
Mon 09:22:00 AM 37.0385 79.8649 218° Southwest  Level Estimated
Mon 09:23:00 AM 37.0385 79.8649 50° Northeast  Level Estimated
Mon 09:24:00 AM 37.0385 79.8649 50° Northeast  Level Estimated
Mon 09:25:00 AM 37.0385 79.8649 50° Northeast  Level Estimated
Mon 09:26:00 AM 37.0385 79.8649 50° Northeast  Level Estimated
Mon 09:27:00 AM 37.0385 79.8649 50° Northeast  Level Estimated
Mon 09:28:00 AM 37.0385 79.8649 50° Northeast  Level Estimated
Mon 09:29:00 AM 37.0385 79.8649 50° Northeast  Level Estimated
Mon 09:30:00 AM 37.0385 79.8649 50° Northeast  Level Estimated
Mon 09:31:00 AM 37.0385 79.8649 50° Northeast  Level Estimated
Mon 09:32:00 AM 37.0385 79.8649 50° Northeast  Level Estimated
Mon 09:33:00 AM 37.0385 79.8649 50° Northeast  Level Estimated
Mon 09:34:00 AM 37.0385 79.8649 50° Northeast  Level Estimated
Mon 09:35:00 AM 37.0385 79.8649 50° Northeast  Level Estimated
Mon 09:36:00 AM 37.0385 79.8649 50° Northeast  Level Estimated
Mon 09:37:00 AM 37.0385 79.8649 50° Northeast  Level Estimated
Mon 09:38:00 AM 37.0385 79.8649 50° Northeast  Level Estimated

Login

Don't have an account? Register now (free) for customized features, flight alerts, and more!